createdAt,value
2018-01-21T00:00:02.778Z,975.90
2018-01-21T00:01:09.892Z,975.87
2018-01-21T00:02:16.893Z,975.94
2018-01-21T00:03:23.865Z,975.98
2018-01-21T00:04:30.720Z,976.02
2018-01-21T00:05:37.635Z,976.02
2018-01-21T00:06:44.520Z,976.07
2018-01-21T00:07:51.475Z,976.13
2018-01-21T00:08:58.474Z,976.18
2018-01-21T00:10:05.282Z,976.19
2018-01-21T00:11:12.104Z,976.26
2018-01-21T00:12:18.847Z,976.24
2018-01-21T00:13:25.583Z,976.31
2018-01-21T00:14:32.562Z,976.29
2018-01-21T00:15:39.403Z,976.34
2018-01-21T00:16:46.247Z,976.34
2018-01-21T00:17:52.960Z,976.37
2018-01-21T00:18:59.727Z,976.44
2018-01-21T00:20:06.564Z,976.37
2018-01-21T00:21:13.319Z,976.41
2018-01-21T00:22:20.065Z,976.43
2018-01-21T00:23:26.907Z,976.47
2018-01-21T00:24:33.726Z,976.55
2018-01-21T00:25:40.563Z,976.55
2018-01-21T00:26:47.283Z,976.54
2018-01-21T00:27:54.043Z,976.51
2018-01-21T00:29:00.804Z,976.52
2018-01-21T00:30:07.553Z,976.52
2018-01-21T00:31:14.419Z,976.60
2018-01-21T00:32:21.246Z,976.62
2018-01-21T00:33:27.980Z,976.66
2018-01-21T00:34:34.743Z,976.69
2018-01-21T00:35:41.495Z,976.78
2018-01-21T00:36:48.427Z,976.83
2018-01-21T00:37:55.155Z,976.86
2018-01-21T00:39:01.895Z,976.81
2018-01-21T00:40:08.843Z,976.85
2018-01-21T00:41:15.628Z,976.75
2018-01-21T00:42:22.372Z,976.76
2018-01-21T00:43:29.212Z,976.78
2018-01-21T00:44:36.132Z,976.77
2018-01-21T00:45:43.023Z,976.88
2018-01-21T00:46:49.945Z,976.84
2018-01-21T00:49:07.101Z,976.89
2018-01-21T00:50:10.904Z,976.94
2018-01-21T00:51:19.259Z,976.96
2018-01-21T00:52:24.768Z,976.99
2018-01-21T00:53:38.990Z,977.04
2018-01-21T00:54:47.160Z,977.08
2018-01-21T00:55:45.150Z,977.15
2018-01-21T00:56:51.853Z,977.15
2018-01-21T00:57:58.993Z,977.16
2018-01-21T00:59:06.435Z,977.15
2018-01-21T01:00:12.883Z,977.24
2018-01-21T01:01:19.836Z,977.21
2018-01-21T01:02:26.840Z,977.28
2018-01-21T01:03:33.732Z,977.41
2018-01-21T01:04:40.540Z,977.37
2018-01-21T01:05:47.344Z,977.48
2018-01-21T01:06:54.296Z,977.47
2018-01-21T01:08:01.132Z,977.52
2018-01-21T01:09:08.124Z,977.58
2018-01-21T01:10:14.936Z,977.57
2018-01-21T01:11:21.945Z,977.68
2018-01-21T01:12:28.788Z,977.74
2018-01-21T01:13:35.680Z,977.81
2018-01-21T01:14:42.482Z,977.81
2018-01-21T01:15:49.477Z,977.77
2018-01-21T01:16:56.328Z,977.83
2018-01-21T01:18:03.117Z,977.96
2018-01-21T01:19:09.916Z,978.00
2018-01-21T01:20:16.704Z,978.01
2018-01-21T01:21:23.622Z,978.12
2018-01-21T01:22:30.331Z,978.11
2018-01-21T01:23:37.037Z,978.16
2018-01-21T01:24:43.890Z,978.12
2018-01-21T01:25:50.619Z,978.15
2018-01-21T01:26:57.415Z,978.12
2018-01-21T01:28:04.123Z,978.21
2018-01-21T01:29:10.887Z,978.26
2018-01-21T01:30:17.585Z,978.25
2018-01-21T01:31:24.375Z,978.23
2018-01-21T01:32:31.136Z,978.34
2018-01-21T01:33:37.922Z,978.33
2018-01-21T01:34:44.643Z,978.42
2018-01-21T01:35:51.370Z,978.49
2018-01-21T01:36:58.231Z,978.47
2018-01-21T01:38:04.998Z,978.54
2018-01-21T01:39:11.763Z,978.62
2018-01-21T01:40:18.597Z,978.54
2018-01-21T01:41:25.408Z,978.61
2018-01-21T01:42:32.205Z,978.65
2018-01-21T01:43:39.233Z,978.73
2018-01-21T01:44:46.040Z,978.77
2018-01-21T01:45:52.911Z,978.73
2018-01-21T01:46:59.800Z,978.78
2018-01-21T01:48:06.560Z,978.76
2018-01-21T01:49:13.360Z,978.86
2018-01-21T01:50:20.234Z,978.91
2018-01-21T01:51:27.018Z,978.93
2018-01-21T01:52:33.821Z,978.97
2018-01-21T01:53:40.715Z,979.03
2018-01-21T01:54:47.656Z,979.04
2018-01-21T01:55:54.629Z,979.09
2018-01-21T01:57:01.596Z,979.13
2018-01-21T01:58:08.608Z,979.15
2018-01-21T01:59:15.478Z,979.24
2018-01-21T02:00:22.326Z,979.22
2018-01-21T02:01:29.180Z,979.28
2018-01-21T02:02:36.076Z,979.34
2018-01-21T02:03:42.840Z,979.35
2018-01-21T02:04:50.500Z,979.39
2018-01-21T02:05:56.639Z,979.37
2018-01-21T02:07:03.677Z,979.41
2018-01-21T02:08:10.612Z,979.46
2018-01-21T02:09:17.508Z,979.61
2018-01-21T02:10:24.504Z,979.57
2018-01-21T02:11:31.404Z,979.56
2018-01-21T02:12:38.361Z,979.60
2018-01-21T02:13:45.192Z,979.66
2018-01-21T02:14:52.046Z,979.70
2018-01-21T02:15:58.924Z,979.68
2018-01-21T02:17:05.812Z,979.74
2018-01-21T02:18:12.684Z,979.78
2018-01-21T02:19:19.527Z,979.77
2018-01-21T02:20:26.422Z,979.74
2018-01-21T02:21:33.256Z,979.77
2018-01-21T02:22:40.237Z,979.82
2018-01-21T02:23:47.125Z,979.85
2018-01-21T02:24:53.920Z,979.90
2018-01-21T02:26:00.623Z,979.87
2018-01-21T02:27:07.705Z,979.95
2018-01-21T02:28:15.911Z,979.98
2018-01-21T02:29:21.612Z,979.99
2018-01-21T02:30:28.377Z,980.01
2018-01-21T02:31:35.328Z,980.06
2018-01-21T02:32:42.266Z,980.06
2018-01-21T02:33:49.073Z,980.02
2018-01-21T02:34:56.015Z,980.01
2018-01-21T02:36:02.801Z,979.99
2018-01-21T02:37:09.584Z,980.10
2018-01-21T02:38:16.372Z,980.02
2018-01-21T02:39:23.346Z,980.05
2018-01-21T02:40:30.161Z,980.04
2018-01-21T02:41:37.007Z,980.04
2018-01-21T02:42:43.933Z,980.01
2018-01-21T02:43:53.216Z,980.10
2018-01-21T02:44:57.768Z,980.11
2018-01-21T02:46:04.561Z,980.14
2018-01-21T02:47:11.383Z,980.20
2018-01-21T02:48:18.216Z,980.23
2018-01-21T02:49:25.014Z,980.25
2018-01-21T02:50:31.872Z,980.31
2018-01-21T02:51:38.656Z,980.24
2018-01-21T02:52:45.564Z,980.33
2018-01-21T02:53:52.387Z,980.27
2018-01-21T02:54:59.191Z,980.33
2018-01-21T02:56:06.136Z,980.32
2018-01-21T02:57:12.984Z,980.35
2018-01-21T02:58:19.898Z,980.42
2018-01-21T02:59:31.756Z,980.37
2018-01-21T03:00:33.523Z,980.46
2018-01-21T03:01:40.339Z,980.44
2018-01-21T03:02:48.875Z,980.44
2018-01-21T03:03:54.037Z,980.51
2018-01-21T03:05:00.851Z,980.55
2018-01-21T03:06:07.705Z,980.59
2018-01-21T03:07:14.602Z,980.62
2018-01-21T03:08:21.472Z,980.57
2018-01-21T03:09:28.377Z,980.70
2018-01-21T03:10:35.435Z,980.67
2018-01-21T03:11:42.370Z,980.64
2018-01-21T03:12:49.348Z,980.65
2018-01-21T03:13:56.225Z,980.81
2018-01-21T03:15:03.120Z,980.84
2018-01-21T03:16:10.274Z,980.73
2018-01-21T03:17:17.126Z,980.84
2018-01-21T03:18:23.981Z,980.83
2018-01-21T03:19:30.836Z,980.92
2018-01-21T03:20:37.680Z,980.95
2018-01-21T03:21:44.661Z,980.92
2018-01-21T03:22:51.644Z,980.96
2018-01-21T03:23:58.498Z,980.98
2018-01-21T03:25:05.432Z,981.00
2018-01-21T03:26:12.276Z,981.06
2018-01-21T03:27:19.209Z,980.98
2018-01-21T03:28:26.045Z,981.02
2018-01-21T03:29:32.987Z,981.02
2018-01-21T03:30:39.839Z,980.95
2018-01-21T03:31:46.741Z,981.06
2018-01-21T03:32:53.553Z,981.05
2018-01-21T03:34:00.543Z,981.02
2018-01-21T03:35:07.649Z,981.08
2018-01-21T03:36:14.493Z,981.06
2018-01-21T03:37:21.400Z,981.07
2018-01-21T03:38:28.237Z,981.18
2018-01-21T03:39:35.056Z,981.24
2018-01-21T03:40:41.940Z,981.23
2018-01-21T03:41:48.805Z,981.26
2018-01-21T03:42:55.620Z,981.32
2018-01-21T03:44:02.476Z,981.29
2018-01-21T03:45:09.401Z,981.33
2018-01-21T03:46:16.257Z,981.41
2018-01-21T03:47:23.147Z,981.46
2018-01-21T03:48:29.993Z,981.46
2018-01-21T03:49:36.924Z,981.49
2018-01-21T03:50:43.776Z,981.58
2018-01-21T03:51:50.689Z,981.57
2018-01-21T03:52:57.565Z,981.56
2018-01-21T03:54:04.465Z,981.58
2018-01-21T03:55:11.371Z,981.57
2018-01-21T03:56:18.437Z,981.61
2018-01-21T03:57:25.380Z,981.62
2018-01-21T03:58:32.239Z,981.66
2018-01-21T03:59:39.115Z,981.69
2018-01-21T04:00:45.980Z,981.68
2018-01-21T04:01:53.010Z,981.69
2018-01-21T04:02:59.921Z,981.75
2018-01-21T04:04:06.755Z,981.79
2018-01-21T04:05:13.608Z,981.78
2018-01-21T04:06:20.532Z,981.84
2018-01-21T04:07:27.382Z,981.89
2018-01-21T04:08:34.278Z,981.77
2018-01-21T04:09:41.185Z,981.81
2018-01-21T04:10:48.148Z,981.83
2018-01-21T04:11:55.053Z,981.83
2018-01-21T04:13:01.955Z,981.90
2018-01-21T04:14:08.936Z,981.93
2018-01-21T04:15:15.961Z,981.90
2018-01-21T04:16:22.899Z,981.90
2018-01-21T04:17:30.244Z,982.06
2018-01-21T04:18:36.711Z,982.01
2018-01-21T04:19:43.615Z,982.10
2018-01-21T04:20:50.513Z,982.10
2018-01-21T04:21:57.360Z,982.05
2018-01-21T04:23:04.335Z,982.14
2018-01-21T04:24:11.212Z,982.23
2018-01-21T04:25:18.117Z,982.25
2018-01-21T04:26:25.045Z,982.23
2018-01-21T04:27:31.920Z,982.24
2018-01-21T04:28:38.849Z,982.25
2018-01-21T04:29:45.723Z,982.30
2018-01-21T04:30:52.565Z,982.36
2018-01-21T04:31:59.450Z,982.37
2018-01-21T04:33:06.320Z,982.44
2018-01-21T04:34:13.189Z,982.52
2018-01-21T04:35:20.097Z,982.48
2018-01-21T04:36:26.953Z,982.50
2018-01-21T04:37:33.819Z,982.54
2018-01-21T04:38:40.765Z,982.63
2018-01-21T04:39:47.608Z,982.61
2018-01-21T04:40:54.462Z,982.67
2018-01-21T04:42:01.391Z,982.71
2018-01-21T04:43:08.243Z,982.66
2018-01-21T04:44:15.109Z,982.76
2018-01-21T04:45:21.925Z,982.82
2018-01-21T04:46:28.754Z,982.75
2018-01-21T04:47:35.601Z,982.83
2018-01-21T04:48:42.437Z,982.84
2018-01-21T04:49:49.257Z,982.87
2018-01-21T04:50:56.129Z,982.93
2018-01-21T04:52:02.975Z,982.88
2018-01-21T04:53:09.913Z,982.94
2018-01-21T04:54:16.758Z,982.97
2018-01-21T04:55:23.656Z,982.95
2018-01-21T04:56:30.513Z,982.93
2018-01-21T04:57:37.330Z,982.97
2018-01-21T04:58:44.183Z,982.94
2018-01-21T04:59:51.161Z,982.97
2018-01-21T05:00:57.984Z,982.98
2018-01-21T05:02:04.832Z,983.14
2018-01-21T05:03:11.713Z,983.04
2018-01-21T05:04:18.573Z,983.01
2018-01-21T05:05:25.413Z,983.08
2018-01-21T05:06:32.272Z,983.16
2018-01-21T05:07:39.130Z,983.18
2018-01-21T05:08:46.466Z,983.21
2018-01-21T05:09:52.895Z,983.20
2018-01-21T05:10:59.752Z,983.18
2018-01-21T05:12:06.624Z,983.19
2018-01-21T05:13:13.476Z,983.17
2018-01-21T05:14:20.365Z,983.32
2018-01-21T05:15:27.292Z,983.22
2018-01-21T05:16:34.117Z,983.36
2018-01-21T05:17:41.064Z,983.33
2018-01-21T05:18:47.921Z,983.39
2018-01-21T05:19:54.808Z,983.35
2018-01-21T05:21:01.706Z,983.37
2018-01-21T05:22:08.626Z,983.43
2018-01-21T05:23:15.516Z,983.41
2018-01-21T05:24:22.452Z,983.51
2018-01-21T05:25:29.290Z,983.39
2018-01-21T05:26:36.185Z,983.47
2018-01-21T05:27:43.216Z,983.51
2018-01-21T05:28:50.093Z,983.53
2018-01-21T05:29:56.997Z,983.50
2018-01-21T05:31:03.917Z,983.47
2018-01-21T05:32:10.805Z,983.51
2018-01-21T05:33:17.760Z,983.49
2018-01-21T05:34:24.602Z,983.56
2018-01-21T05:35:31.505Z,983.66
2018-01-21T05:36:38.365Z,983.55
2018-01-21T05:37:45.177Z,983.59
2018-01-21T05:38:52.004Z,983.66
2018-01-21T05:39:58.885Z,983.65
2018-01-21T05:41:06.009Z,983.69
2018-01-21T05:42:12.946Z,983.65
2018-01-21T05:43:19.835Z,983.74
2018-01-21T05:44:26.686Z,983.77
2018-01-21T05:45:33.549Z,983.81
2018-01-21T05:46:40.428Z,983.78
2018-01-21T05:47:47.455Z,983.79
2018-01-21T05:48:54.335Z,983.81
2018-01-21T05:50:01.185Z,983.79
2018-01-21T05:51:08.094Z,983.90
2018-01-21T05:52:15.053Z,983.83
2018-01-21T05:53:21.877Z,983.88
2018-01-21T05:54:28.791Z,983.94
2018-01-21T05:55:35.700Z,983.88
2018-01-21T05:56:42.620Z,983.87
2018-01-21T05:57:49.720Z,983.85
2018-01-21T05:58:56.667Z,983.73
2018-01-21T06:00:03.577Z,983.82
2018-01-21T06:01:10.556Z,983.84
2018-01-21T06:02:17.404Z,983.96
2018-01-21T06:03:24.244Z,983.91
2018-01-21T06:04:31.349Z,983.88
2018-01-21T06:05:38.181Z,983.94
2018-01-21T06:06:45.029Z,983.99
2018-01-21T06:07:51.867Z,984.02
2018-01-21T06:08:58.759Z,984.13
2018-01-21T06:10:05.587Z,984.14
2018-01-21T06:11:12.596Z,984.18
2018-01-21T06:12:19.412Z,984.26
2018-01-21T06:13:26.227Z,984.26
2018-01-21T06:14:33.090Z,984.28
2018-01-21T06:15:40.232Z,984.31
2018-01-21T06:16:47.413Z,984.31
2018-01-21T06:17:54.204Z,984.35
2018-01-21T06:19:01.158Z,984.31
2018-01-21T06:20:08.195Z,984.38
2018-01-21T06:21:15.116Z,984.44
2018-01-21T06:22:21.985Z,984.40
2018-01-21T06:23:28.781Z,984.35
2018-01-21T06:24:35.616Z,984.51
2018-01-21T06:25:42.547Z,984.53
2018-01-21T06:26:49.375Z,984.57
2018-01-21T06:27:56.204Z,984.57
2018-01-21T06:29:03.067Z,984.54
2018-01-21T06:30:09.872Z,984.70
2018-01-21T06:31:16.843Z,984.62
2018-01-21T06:32:23.692Z,984.59
2018-01-21T06:33:30.636Z,984.67
2018-01-21T06:34:37.444Z,984.72
2018-01-21T06:35:44.302Z,984.67
2018-01-21T06:36:51.096Z,984.74
2018-01-21T06:37:57.959Z,984.69
2018-01-21T06:39:04.851Z,984.67
2018-01-21T06:40:11.676Z,984.65
2018-01-21T06:41:18.520Z,984.73
2018-01-21T06:42:25.395Z,984.81
2018-01-21T06:43:32.294Z,984.82
2018-01-21T06:44:39.121Z,984.80
2018-01-21T06:45:45.984Z,984.78
2018-01-21T06:46:52.780Z,984.87
2018-01-21T06:47:59.563Z,984.92
2018-01-21T06:49:06.340Z,985.00
2018-01-21T06:50:13.128Z,984.93
2018-01-21T06:51:20.014Z,984.93
2018-01-21T06:52:26.808Z,984.91
2018-01-21T06:53:33.620Z,984.89
2018-01-21T06:54:40.440Z,984.94
2018-01-21T06:55:47.198Z,984.92
2018-01-21T06:56:53.962Z,984.94
2018-01-21T06:58:00.787Z,984.88
2018-01-21T06:59:07.576Z,984.81
2018-01-21T07:00:14.336Z,984.88
2018-01-21T07:01:21.103Z,984.94
2018-01-21T07:02:27.855Z,984.96
2018-01-21T07:03:34.668Z,984.96
2018-01-21T07:04:41.426Z,985.06
2018-01-21T07:05:48.130Z,985.07
2018-01-21T07:06:54.908Z,985.08
2018-01-21T07:08:01.752Z,985.10
2018-01-21T07:09:08.492Z,985.06
2018-01-21T07:10:15.268Z,985.17
2018-01-21T07:11:21.994Z,985.18
2018-01-21T07:12:28.887Z,985.27
2018-01-21T07:13:35.648Z,985.24
2018-01-21T07:14:42.385Z,985.33
2018-01-21T07:15:49.397Z,985.32
2018-01-21T07:16:56.175Z,985.27
2018-01-21T07:18:02.909Z,985.36
2018-01-21T07:19:09.644Z,985.35
2018-01-21T07:20:16.425Z,985.36
2018-01-21T07:21:23.148Z,985.43
2018-01-21T07:22:29.920Z,985.50
2018-01-21T07:23:36.751Z,985.51
2018-01-21T07:24:43.545Z,985.49
2018-01-21T07:25:50.317Z,985.54
2018-01-21T07:26:57.056Z,985.52
2018-01-21T07:28:03.814Z,985.59
2018-01-21T07:29:10.772Z,985.56
2018-01-21T07:30:17.524Z,985.56
2018-01-21T07:31:24.273Z,985.61
2018-01-21T07:32:31.084Z,985.62
2018-01-21T07:33:37.847Z,985.62
2018-01-21T07:34:44.723Z,985.71
2018-01-21T07:35:51.531Z,985.71
2018-01-21T07:36:58.281Z,985.69
2018-01-21T07:38:05.066Z,985.79
2018-01-21T07:39:11.807Z,985.84
2018-01-21T07:40:18.654Z,985.82
2018-01-21T07:41:25.399Z,985.81
2018-01-21T07:42:32.176Z,985.89
2018-01-21T07:43:38.936Z,985.88
2018-01-21T07:44:45.843Z,985.91
2018-01-21T07:45:52.604Z,985.95
2018-01-21T07:46:59.384Z,985.89
2018-01-21T07:48:06.229Z,985.90
2018-01-21T07:49:13.000Z,985.94
2018-01-21T07:50:19.788Z,986.00
2018-01-21T07:51:26.537Z,986.07
2018-01-21T07:52:33.342Z,986.08
2018-01-21T07:53:40.128Z,986.14
2018-01-21T07:54:46.924Z,986.15
2018-01-21T07:55:53.800Z,986.25
2018-01-21T07:57:00.565Z,986.24
2018-01-21T07:58:07.335Z,986.24
2018-01-21T07:59:14.081Z,986.34
2018-01-21T08:00:21.028Z,986.42
2018-01-21T08:01:27.760Z,986.44
2018-01-21T08:02:34.520Z,986.38
2018-01-21T08:03:41.367Z,986.40
2018-01-21T08:04:48.134Z,986.43
2018-01-21T08:05:54.920Z,986.47
2018-01-21T08:07:01.631Z,986.42
2018-01-21T08:08:08.457Z,986.51
2018-01-21T08:09:15.191Z,986.56
2018-01-21T08:10:22.024Z,986.54
2018-01-21T08:11:28.892Z,986.61
2018-01-21T08:12:35.664Z,986.60
2018-01-21T08:13:42.430Z,986.62
2018-01-21T08:14:49.294Z,986.66
2018-01-21T08:15:56.184Z,986.67
2018-01-21T08:17:02.932Z,986.70
2018-01-21T08:18:09.788Z,986.78
2018-01-21T08:19:16.519Z,986.69
2018-01-21T08:20:23.297Z,986.74
2018-01-21T08:21:30.060Z,986.70
2018-01-21T08:22:36.867Z,986.74
2018-01-21T08:23:43.587Z,986.74
2018-01-21T08:24:50.360Z,986.75
2018-01-21T08:25:57.132Z,986.73
2018-01-21T08:27:03.929Z,986.77
2018-01-21T08:28:10.831Z,986.80
2018-01-21T08:29:17.544Z,986.76
2018-01-21T08:30:24.388Z,986.88
2018-01-21T08:31:31.153Z,986.90
2018-01-21T08:32:37.905Z,986.93
2018-01-21T08:33:44.668Z,986.94
2018-01-21T08:34:51.453Z,986.99
2018-01-21T08:35:58.264Z,987.01
2018-01-21T08:37:06.013Z,987.04
2018-01-21T08:38:16.523Z,987.10
2018-01-21T08:39:23.480Z,987.11
2018-01-21T08:40:34.665Z,987.10
2018-01-21T08:41:42.504Z,987.13
2018-01-21T08:42:49.333Z,987.14
2018-01-21T08:43:56.208Z,987.12
2018-01-21T08:45:03.224Z,987.19
2018-01-21T08:46:09.993Z,987.11
2018-01-21T08:47:16.753Z,987.19
2018-01-21T08:48:23.506Z,987.28
2018-01-21T08:49:30.256Z,987.24
2018-01-21T08:50:37.072Z,987.26
2018-01-21T08:51:43.817Z,987.23
2018-01-21T08:52:50.635Z,987.26
2018-01-21T08:53:57.513Z,987.19
2018-01-21T08:55:04.289Z,987.28
2018-01-21T08:56:11.109Z,987.22
2018-01-21T08:57:18.001Z,987.15
2018-01-21T08:58:24.792Z,987.29
2018-01-21T08:59:31.557Z,987.26
2018-01-21T09:00:39.471Z,987.23
2018-01-21T09:01:45.256Z,987.28
2018-01-21T09:02:52.061Z,987.24
2018-01-21T09:03:58.888Z,987.31
2018-01-21T09:05:05.665Z,987.30
2018-01-21T09:06:12.444Z,987.33
2018-01-21T09:07:19.191Z,987.31
2018-01-21T09:08:26.008Z,987.35
2018-01-21T09:09:32.775Z,987.34
2018-01-21T09:10:39.543Z,987.28
2018-01-21T09:11:46.403Z,987.31
2018-01-21T09:12:53.196Z,987.26
2018-01-21T09:14:00.016Z,987.30
2018-01-21T09:15:06.864Z,987.25
2018-01-21T09:16:13.728Z,987.35
2018-01-21T09:17:20.492Z,987.27
2018-01-21T09:18:27.388Z,987.29
2018-01-21T09:19:34.200Z,987.26
2018-01-21T09:20:41.078Z,987.21
2018-01-21T09:21:47.856Z,987.27
2018-01-21T09:22:54.623Z,987.27
2018-01-21T09:24:01.516Z,987.30
2018-01-21T09:25:08.336Z,987.32
2018-01-21T09:26:15.115Z,987.39
2018-01-21T09:27:21.927Z,987.37
2018-01-21T09:28:28.785Z,987.30
2018-01-21T09:29:35.591Z,987.27
2018-01-21T09:30:42.368Z,987.33
2018-01-21T09:31:49.168Z,987.38
2018-01-21T09:32:56.216Z,987.43
2018-01-21T09:34:03.040Z,987.43
2018-01-21T09:35:09.978Z,987.41
2018-01-21T09:36:16.752Z,987.43
2018-01-21T09:37:23.526Z,987.44
2018-01-21T09:38:30.392Z,987.43
2018-01-21T09:39:37.232Z,987.51
2018-01-21T09:40:44.053Z,987.53
2018-01-21T09:41:50.845Z,987.48
2018-01-21T09:42:57.725Z,987.54
2018-01-21T09:44:04.628Z,987.55
2018-01-21T09:45:11.528Z,987.55
2018-01-21T09:46:18.420Z,987.53
2018-01-21T09:47:25.258Z,987.55
2018-01-21T09:48:32.060Z,987.60
2018-01-21T09:49:38.747Z,987.69
2018-01-21T09:50:45.524Z,987.71
2018-01-21T09:51:52.374Z,987.63
2018-01-21T09:52:59.336Z,987.61
2018-01-21T09:54:06.221Z,987.62
2018-01-21T09:55:13.169Z,987.63
2018-01-21T09:56:20.037Z,987.63
2018-01-21T09:57:26.869Z,987.64
2018-01-21T09:58:33.797Z,987.65
2018-01-21T09:59:40.738Z,987.71
2018-01-21T10:00:47.596Z,987.79
2018-01-21T10:01:54.440Z,987.82
2018-01-21T10:03:01.287Z,987.83
2018-01-21T10:04:08.131Z,987.78
2018-01-21T10:05:15.085Z,987.88
2018-01-21T10:06:21.908Z,987.91
2018-01-21T10:07:28.760Z,987.93
2018-01-21T10:08:35.613Z,987.79
2018-01-21T10:09:42.468Z,987.82
2018-01-21T10:10:49.359Z,987.89
2018-01-21T10:11:56.309Z,987.94
2018-01-21T10:13:03.380Z,988.01
2018-01-21T10:14:10.238Z,988.03
2018-01-21T10:15:17.218Z,988.08
2018-01-21T10:16:24.119Z,988.13
2018-01-21T10:17:30.968Z,988.15
2018-01-21T10:18:37.813Z,988.17
2018-01-21T10:19:44.749Z,988.15
2018-01-21T10:20:51.612Z,988.16
2018-01-21T10:21:58.529Z,988.09
2018-01-21T10:23:05.392Z,988.17
2018-01-21T10:24:12.377Z,988.19
2018-01-21T10:25:19.215Z,988.32
2018-01-21T10:26:26.121Z,988.22
2018-01-21T10:27:32.935Z,988.21
2018-01-21T10:28:39.834Z,988.16
2018-01-21T10:29:46.703Z,988.18
2018-01-21T10:30:53.608Z,988.24
2018-01-21T10:32:00.419Z,988.26
2018-01-21T10:33:07.236Z,988.21
2018-01-21T10:34:14.069Z,988.26
2018-01-21T10:35:20.851Z,988.27
2018-01-21T10:36:27.684Z,988.21
2018-01-21T10:37:34.524Z,988.29
2018-01-21T10:38:41.336Z,988.27
2018-01-21T10:39:48.296Z,988.25
2018-01-21T10:40:55.147Z,988.31
2018-01-21T10:42:02.088Z,988.27
2018-01-21T10:43:08.924Z,988.34
2018-01-21T10:44:15.884Z,988.30
2018-01-21T10:45:22.768Z,988.40
2018-01-21T10:46:29.652Z,988.37
2018-01-21T10:47:36.475Z,988.40
2018-01-21T10:48:43.329Z,988.47
2018-01-21T10:49:50.188Z,988.47
2018-01-21T10:50:57.005Z,988.44
2018-01-21T10:52:03.899Z,988.43
2018-01-21T10:53:10.696Z,988.51
2018-01-21T10:54:17.536Z,988.49
2018-01-21T10:55:24.359Z,988.41
2018-01-21T10:56:31.216Z,988.48
2018-01-21T10:57:37.981Z,988.42
2018-01-21T10:58:44.792Z,988.46
2018-01-21T10:59:51.644Z,988.48
2018-01-21T11:00:58.511Z,988.50
2018-01-21T11:02:05.446Z,988.52
2018-01-21T11:03:12.340Z,988.49
2018-01-21T11:04:19.248Z,988.48
2018-01-21T11:05:26.133Z,988.52
2018-01-21T11:06:32.979Z,988.45
2018-01-21T11:07:39.759Z,988.47
2018-01-21T11:08:46.584Z,988.52
2018-01-21T11:09:53.368Z,988.59
2018-01-21T11:11:00.217Z,988.58
2018-01-21T11:12:07.074Z,988.57
2018-01-21T11:13:13.938Z,988.63
2018-01-21T11:14:20.889Z,988.62
2018-01-21T11:15:27.739Z,988.64
2018-01-21T11:16:34.687Z,988.62
2018-01-21T11:17:41.524Z,988.59
2018-01-21T11:18:48.320Z,988.60
2018-01-21T11:19:55.169Z,988.52
2018-01-21T11:21:02.001Z,988.55
2018-01-21T11:22:08.985Z,988.54
2018-01-21T11:23:15.916Z,988.47
2018-01-21T11:24:22.946Z,988.56
2018-01-21T11:25:29.817Z,988.61
2018-01-21T11:26:36.656Z,988.59
2018-01-21T11:27:43.585Z,988.54
2018-01-21T11:28:50.441Z,988.52
2018-01-21T11:29:57.244Z,988.48
2018-01-21T11:31:04.131Z,988.54
2018-01-21T11:32:11.029Z,988.58
2018-01-21T11:33:18.000Z,988.61
2018-01-21T11:34:24.799Z,988.59
2018-01-21T11:35:31.779Z,988.56
2018-01-21T11:36:38.643Z,988.56
2018-01-21T11:37:45.677Z,988.54
2018-01-21T11:38:52.507Z,988.44
2018-01-21T11:39:59.360Z,988.53
2018-01-21T11:41:06.188Z,988.57
2018-01-21T11:42:13.017Z,988.51
2018-01-21T11:43:19.917Z,988.45
2018-01-21T11:44:26.749Z,988.52
2018-01-21T11:45:33.633Z,988.50
2018-01-21T11:46:40.504Z,988.46
2018-01-21T11:47:47.548Z,988.46
2018-01-21T11:48:54.479Z,988.47
2018-01-21T11:50:01.329Z,988.48
2018-01-21T11:51:08.247Z,988.51
2018-01-21T11:52:15.095Z,988.53
2018-01-21T11:53:22.292Z,988.40
2018-01-21T11:54:28.661Z,988.39
2018-01-21T11:55:35.523Z,988.44
2018-01-21T11:56:42.404Z,988.36
2018-01-21T11:57:49.326Z,988.37
2018-01-21T11:58:56.194Z,988.37
2018-01-21T12:00:03.145Z,988.40
2018-01-21T12:01:10.023Z,988.42
2018-01-21T12:02:16.961Z,988.44
2018-01-21T12:03:23.768Z,988.40
2018-01-21T12:04:30.564Z,988.38
2018-01-21T12:05:37.419Z,988.42
2018-01-21T12:06:44.217Z,988.47
2018-01-21T12:07:51.044Z,988.37
2018-01-21T12:08:57.919Z,988.33
2018-01-21T12:10:04.707Z,988.24
2018-01-21T12:11:11.504Z,988.34
2018-01-21T12:12:18.445Z,988.30
2018-01-21T12:13:25.248Z,988.37
2018-01-21T12:14:32.187Z,988.48
2018-01-21T12:15:38.971Z,988.40
2018-01-21T12:16:45.887Z,988.48
2018-01-21T12:17:52.720Z,988.48
2018-01-21T12:18:59.525Z,988.46
2018-01-21T12:20:06.319Z,988.42
2018-01-21T12:21:13.080Z,988.45
2018-01-21T12:22:19.856Z,988.40
2018-01-21T12:23:26.621Z,988.49
2018-01-21T12:24:33.587Z,988.43
2018-01-21T12:25:40.365Z,988.44
2018-01-21T12:26:47.160Z,988.35
2018-01-21T12:27:54.029Z,988.34
2018-01-21T12:29:00.816Z,988.35
2018-01-21T12:30:07.625Z,988.41
2018-01-21T12:31:14.508Z,988.40
2018-01-21T12:32:21.297Z,988.43
2018-01-21T12:33:28.045Z,988.38
2018-01-21T12:34:34.832Z,988.38
2018-01-21T12:35:41.616Z,988.35
2018-01-21T12:36:48.373Z,988.32
2018-01-21T12:37:55.213Z,988.31
2018-01-21T12:39:02.084Z,988.26
2018-01-21T12:40:09.056Z,988.37
2018-01-21T12:41:15.892Z,988.39
2018-01-21T12:42:22.672Z,988.39
2018-01-21T12:43:29.440Z,988.28
2018-01-21T12:44:36.604Z,988.39
2018-01-21T12:45:43.588Z,988.33
2018-01-21T12:46:50.373Z,988.46
2018-01-21T12:47:57.112Z,988.39
2018-01-21T12:49:04.060Z,988.49
2018-01-21T12:50:10.921Z,988.52
2018-01-21T12:51:17.647Z,988.54
2018-01-21T12:52:24.493Z,988.57
2018-01-21T12:53:31.364Z,988.59
2018-01-21T12:54:38.131Z,988.69
2018-01-21T12:55:44.932Z,988.71
2018-01-21T12:56:51.760Z,988.65
2018-01-21T12:57:58.516Z,988.73
2018-01-21T12:59:05.384Z,988.70
2018-01-21T13:00:12.156Z,988.69
2018-01-21T13:01:18.900Z,988.69
2018-01-21T13:02:25.669Z,988.65
2018-01-21T13:03:32.514Z,988.54
2018-01-21T13:04:39.644Z,988.50
2018-01-21T13:05:46.383Z,988.51
2018-01-21T13:06:53.160Z,988.58
2018-01-21T13:07:59.889Z,988.61
2018-01-21T13:09:06.624Z,988.61
2018-01-21T13:10:13.408Z,988.69
2018-01-21T13:11:20.175Z,988.75
2018-01-21T13:12:27.036Z,988.66
2018-01-21T13:13:33.856Z,988.64
2018-01-21T13:14:40.601Z,988.61
2018-01-21T13:15:47.437Z,988.55
2018-01-21T13:16:54.152Z,988.61
2018-01-21T13:18:00.959Z,988.66
2018-01-21T13:19:07.729Z,988.66
2018-01-21T13:20:14.448Z,988.62
2018-01-21T13:21:21.219Z,988.65
2018-01-21T13:22:28.073Z,988.64
2018-01-21T13:23:34.793Z,988.63
2018-01-21T13:24:41.536Z,988.67
2018-01-21T13:25:48.260Z,988.72
2018-01-21T13:26:55.022Z,988.68
2018-01-21T13:28:01.852Z,988.56
2018-01-21T13:29:08.624Z,988.54
2018-01-21T13:30:15.404Z,988.63
2018-01-21T13:31:22.206Z,988.63
2018-01-21T13:32:29.024Z,988.64
2018-01-21T13:33:35.792Z,988.65
2018-01-21T13:34:42.549Z,988.66
2018-01-21T13:35:49.288Z,988.68
2018-01-21T13:36:56.088Z,988.55
2018-01-21T13:38:02.808Z,988.59
2018-01-21T13:39:09.669Z,988.64
2018-01-21T13:40:16.536Z,988.59
2018-01-21T13:41:23.265Z,988.63
2018-01-21T13:42:30.024Z,988.68
2018-01-21T13:43:36.767Z,988.63
2018-01-21T13:44:43.676Z,988.62
2018-01-21T13:45:50.432Z,988.55
2018-01-21T13:46:57.148Z,988.62
2018-01-21T13:48:03.896Z,988.57
2018-01-21T13:49:10.753Z,988.56
2018-01-21T13:50:17.499Z,988.48
2018-01-21T13:51:24.396Z,988.49
2018-01-21T13:52:31.216Z,988.51
2018-01-21T13:53:37.946Z,988.48
2018-01-21T13:54:44.715Z,988.47